Time;durP1;ratioP1;P1;durP2;ratioP2;P2;SDS_P1;SDS_P2;PMS_P1;PMS_P2;Temp;Humidity;BMP_temperature;BMP_pressure;BME280_temperature;BME280_humidity;BME280_pressure;Samples;Min_cycle;Max_cycle;Signal;HPM_P1;HPM_P2
2024/01/03 00:00:58;;;;;;;10.60;10.40;;;9.40;99.90;;;;;;5036915;28;20503;-80
2024/01/03 00:03:31;;;;;;;11.00;10.80;;;9.40;99.90;;;;;;5038747;28;20480;-79
2024/01/03 00:06:00;;;;;;;11.10;10.90;;;9.40;1.00;;;;;;5039112;28;20476;-80
2024/01/03 00:08:31;;;;;;;11.50;11.20;;;9.40;1.00;;;;;;5036191;28;20552;-78
2024/01/03 00:11:01;;;;;;;11.00;10.80;;;9.40;1.00;;;;;;5038972;28;21014;-80
2024/01/03 00:14:17;;;;;;;10.90;10.60;;;9.40;1.00;;;;;;5038076;28;20445;-80
2024/01/03 00:16:45;;;;;;;11.43;10.97;;;9.40;1.00;;;;;;5039926;28;20878;-80
2024/01/03 00:19:21;;;;;;;10.70;10.40;;;9.40;99.90;;;;;;5033106;28;20568;-80
2024/01/03 00:21:50;;;;;;;10.47;10.27;;;9.40;99.90;;;;;;5038968;28;20452;-80
2024/01/03 00:24:20;;;;;;;10.60;10.20;;;9.40;1.00;;;;;;5037075;28;20487;-80
2024/01/03 00:26:48;;;;;;;11.20;10.70;;;9.40;99.90;;;;;;5040934;28;20542;-81
2024/01/03 00:29:48;;;;;;;10.03;9.80;;;9.40;1.00;;;;;;5043693;28;20563;-80
2024/01/03 00:32:17;;;;;;;9.93;9.70;;;9.40;99.90;;;;;;5042907;28;20449;-80
2024/01/03 00:34:50;;;;;;;10.70;10.30;;;9.40;99.90;;;;;;5038864;28;20540;-80
2024/01/03 00:37:34;;;;;;;9.90;9.60;;;9.40;1.00;;;;;;5040321;28;20444;-81
2024/01/03 00:40:06;;;;;;;9.30;9.10;;;9.40;99.90;;;;;;5042981;28;20530;-81
2024/01/03 00:42:34;;;;;;;9.50;9.23;;;9.40;99.90;;;;;;5042189;28;20461;-81
2024/01/03 00:45:03;;;;;;;9.57;9.27;;;9.40;99.90;;;;;;5041423;28;20462;-81
2024/01/03 00:47:31;;;;;;;9.00;8.70;;;9.40;1.00;;;;;;5043746;28;20452;-81
2024/01/03 00:50:01;;;;;;;9.10;8.90;;;9.50;1.00;;;;;;5047548;28;20472;-80
2024/01/03 00:52:29;;;;;;;8.90;8.70;;;9.50;1.00;;;;;;5044825;28;20452;-79
2024/01/03 00:54:58;;;;;;;9.57;9.37;;;9.60;99.90;;;;;;5046103;28;20527;-79
2024/01/03 00:57:26;;;;;;;9.87;9.40;;;9.50;99.90;;;;;;5041683;28;20461;-80
2024/01/03 00:59:54;;;;;;;9.60;9.30;;;9.50;99.90;;;;;;5042140;28;20512;-79
2024/01/03 01:02:23;;;;;;;9.50;9.30;;;9.40;36.00;;;;;;5042614;28;21035;-79
2024/01/03 01:04:51;;;;;;;9.70;9.50;;;9.30;24.20;;;;;;5044357;28;20491;-81
2024/01/03 01:07:21;;;;;;;9.90;9.60;;;9.40;99.90;;;;;;5042564;28;20453;-79
2024/01/03 01:09:49;;;;;;;9.63;9.43;;;9.30;99.90;;;;;;5041015;28;20471;-79
2024/01/03 01:12:18;;;;;;;9.77;9.50;;;9.30;1.00;;;;;;5036685;28;20543;-79
2024/01/03 01:14:46;;;;;;;9.83;9.63;;;9.20;91.70;;;;;;5042010;28;20452;-80
2024/01/03 01:17:15;;;;;;;9.60;9.40;;;9.20;1.00;;;;;;5042473;28;20463;-79
2024/01/03 01:19:43;;;;;;;9.60;9.40;;;9.30;1.00;;;;;;5037699;28;21021;-80
2024/01/03 01:22:12;;;;;;;9.37;9.13;;;9.30;1.00;;;;;;5042524;28;20456;-80
2024/01/03 01:24:42;;;;;;;9.87;9.67;;;9.30;1.00;;;;;;5040752;28;20468;-80
2024/01/03 01:27:10;;;;;;;9.60;9.30;;;9.30;1.00;;;;;;5039732;28;20488;-80
2024/01/03 01:29:38;;;;;;;9.50;9.30;;;9.30;1.00;;;;;;5039357;28;20468;-79
2024/01/03 01:32:07;;;;;;;9.63;9.40;;;9.20;99.90;;;;;;5038231;28;20480;-79
2024/01/03 01:34:35;;;;;;;9.70;9.20;;;9.20;1.00;;;;;;5052887;28;20816;-79
2024/01/03 01:37:04;;;;;;;9.40;9.00;;;9.10;30.50;;;;;;5036675;28;21016;-80
2024/01/03 01:39:32;;;;;;;9.17;8.97;;;9.20;1.00;;;;;;5038013;28;20477;-80
2024/01/03 01:42:02;;;;;;;8.97;8.77;;;9.20;1.00;;;;;;5037848;28;20510;-80
2024/01/03 01:44:30;;;;;;;8.90;8.80;;;9.10;99.90;;;;;;5039779;28;20464;-81
2024/01/03 01:46:59;;;;;;;9.00;8.90;;;9.10;1.00;;;;;;5041254;28;20453;-80
2024/01/03 01:49:28;;;;;;;10.07;9.77;;;9.10;1.00;;;;;;5038783;28;20469;-79
2024/01/03 01:51:56;;;;;;;9.50;9.30;;;9.10;1.00;;;;;;5039551;28;20536;-80
2024/01/03 01:54:25;;;;;;;9.60;9.40;;;9.10;99.90;;;;;;5038794;28;20449;-81
2024/01/03 01:56:53;;;;;;;9.27;9.07;;;9.10;99.90;;;;;;5039797;28;20543;-79
2024/01/03 01:59:23;;;;;;;9.70;9.50;;;9.10;1.00;;;;;;5034933;28;20534;-80
2024/01/03 02:01:52;;;;;;;9.40;9.30;;;9.10;1.00;;;;;;5055364;28;20468;-80
2024/01/03 02:04:21;;;;;;;9.47;9.30;;;9.20;1.00;;;;;;5040501;28;20487;-81
2024/01/03 02:06:50;;;;;;;9.10;9.00;;;9.10;1.00;;;;;;5051822;28;20468;-81
2024/01/03 02:09:18;;;;;;;9.50;9.30;;;9.10;99.90;;;;;;5039993;28;20562;-78
2024/01/03 02:11:47;;;;;;;9.27;9.17;;;9.10;69.10;;;;;;5038683;28;20969;-79
2024/01/03 02:14:16;;;;;;;9.40;9.20;;;9.10;1.00;;;;;;5036930;28;20919;-79
2024/01/03 02:16:45;;;;;;;9.33;9.13;;;9.10;99.90;;;;;;5040340;28;20456;-82
2024/01/03 02:19:14;;;;;;;9.03;8.83;;;9.10;1.00;;;;;;5037362;28;20533;-79
2024/01/03 02:21:44;;;;;;;9.07;8.80;;;9.10;99.90;;;;;;5040345;28;20578;-81
2024/01/03 02:24:12;;;;;;;9.10;8.90;;;9.10;1.00;;;;;;5039903;28;20476;-80
2024/01/03 02:26:40;;;;;;;9.10;9.00;;;9.10;2.80;;;;;;5038537;28;20472;-80
2024/01/03 02:29:08;;;;;;;9.20;9.10;;;9.10;99.90;;;;;;5041311;28;20467;-81
2024/01/03 02:31:37;;;;;;;9.27;9.10;;;9.10;19.10;;;;;;5036680;28;20519;-80
2024/01/03 02:34:05;;;;;;;9.20;9.10;;;9.10;1.00;;;;;;5037725;28;21478;-78
2024/01/03 02:36:34;;;;;;;9.13;9.00;;;9.10;1.00;;;;;;5038545;28;20456;-80
2024/01/03 02:39:05;;;;;;;8.80;8.70;;;9.10;1.00;;;;;;5039897;28;21001;-79
2024/01/03 02:41:33;;;;;;;9.50;9.30;;;9.10;1.00;;;;;;5039680;28;20484;-80
2024/01/03 02:44:01;;;;;;;9.20;9.00;;;9.00;1.00;;;;;;5039629;28;20971;-81
2024/01/03 02:46:30;;;;;;;9.10;9.00;;;9.00;99.90;;;;;;5041228;28;20445;-80
2024/01/03 02:48:58;;;;;;;9.20;9.10;;;9.10;99.90;;;;;;5039621;28;20484;-80
2024/01/03 02:51:26;;;;;;;9.40;9.20;;;9.10;99.90;;;;;;5038770;28;20461;-82
2024/01/03 02:53:55;;;;;;;9.67;9.47;;;9.10;99.90;;;;;;5039466;28;20486;-80
2024/01/03 02:56:24;;;;;;;9.50;9.30;;;9.10;99.90;;;;;;5038337;28;20449;-81
2024/01/03 02:58:53;;;;;;;9.70;9.40;;;9.20;99.90;;;;;;5040498;28;20454;-82
2024/01/03 03:01:21;;;;;;;9.73;9.53;;;9.10;99.90;;;;;;5034946;28;20495;-79
2024/01/03 03:03:49;;;;;;;9.33;9.13;;;9.10;99.90;;;;;;5038809;28;20571;-80
2024/01/03 03:06:18;;;;;;;9.43;9.23;;;9.20;99.90;;;;;;5036761;28;20444;-81
2024/01/03 03:08:46;;;;;;;9.90;9.70;;;9.20;99.90;;;;;;5039076;28;20607;-80
2024/01/03 03:11:15;;;;;;;9.83;9.53;;;9.10;99.90;;;;;;5039985;28;20457;-80
2024/01/03 03:13:44;;;;;;;9.90;9.70;;;9.20;99.90;;;;;;5038968;28;20456;-81
2024/01/03 03:16:13;;;;;;;9.40;9.30;;;9.10;99.90;;;;;;5035827;28;20861;-80
2024/01/03 03:18:41;;;;;;;9.80;9.70;;;9.10;99.90;;;;;;5038143;28;21049;-80
2024/01/03 03:21:10;;;;;;;10.10;9.80;;;9.20;99.90;;;;;;5037626;28;20954;-80
2024/01/03 03:23:40;;;;;;;10.27;9.90;;;9.10;1.00;;;;;;5039200;28;20556;-80
2024/01/03 03:26:08;;;;;;;9.50;9.33;;;9.10;1.00;;;;;;5037674;28;20506;-79
2024/01/03 03:28:37;;;;;;;9.90;9.70;;;9.10;99.90;;;;;;5041693;28;20460;-80
2024/01/03 03:31:06;;;;;;;9.83;9.53;;;9.10;1.00;;;;;;5036628;28;20493;-79
2024/01/03 03:33:35;;;;;;;10.00;9.70;;;9.10;1.00;;;;;;5037788;28;20451;-80
2024/01/03 03:36:03;;;;;;;10.33;10.07;;;9.10;1.00;;;;;;5036111;28;20453;-80
2024/01/03 03:38:32;;;;;;;9.83;9.63;;;9.10;99.90;;;;;;5036933;28;20449;-81
2024/01/03 03:41:00;;;;;;;10.30;10.00;;;9.10;99.90;;;;;;5038236;28;20522;-80
2024/01/03 03:43:29;;;;;;;10.53;10.20;;;9.10;99.90;;;;;;5037608;28;20465;-80
2024/01/03 03:45:59;;;;;;;10.30;10.00;;;9.10;99.90;;;;;;5036193;28;20576;-79
2024/01/03 03:48:29;;;;;;;10.20;9.80;;;9.10;99.90;;;;;;5036887;28;21051;-79
2024/01/03 03:50:57;;;;;;;10.03;9.83;;;9.10;69.90;;;;;;5038992;28;20472;-79
2024/01/03 03:53:25;;;;;;;9.97;9.67;;;9.10;1.00;;;;;;5035780;28;20823;-79
2024/01/03 03:55:54;;;;;;;10.10;9.80;;;9.00;1.00;;;;;;5039028;28;20452;-80
2024/01/03 03:58:22;;;;;;;9.67;9.47;;;9.00;22.20;;;;;;5036222;28;20486;-79
2024/01/03 04:00:50;;;;;;;9.93;9.73;;;8.90;99.90;;;;;;5034361;28;20475;-80
2024/01/03 04:03:19;;;;;;;10.00;9.80;;;8.90;1.00;;;;;;5037927;28;20467;-81
2024/01/03 04:05:48;;;;;;;10.43;10.13;;;9.00;1.00;;;;;;5040723;28;20473;-79
2024/01/03 04:08:17;;;;;;;10.50;10.30;;;9.00;1.00;;;;;;5039657;28;20536;-80
2024/01/03 04:10:45;;;;;;;10.90;10.60;;;9.00;99.90;;;;;;5040340;28;20480;-79
2024/01/03 04:13:13;;;;;;;10.40;10.10;;;9.00;91.30;;;;;;5041362;28;20452;-79
2024/01/03 04:15:42;;;;;;;10.00;9.80;;;9.10;1.00;;;;;;5039286;28;20476;-81
2024/01/03 04:18:10;;;;;;;10.00;9.80;;;9.00;99.90;;;;;;5038842;28;20459;-79
2024/01/03 04:20:39;;;;;;;10.37;10.00;;;9.10;99.90;;;;;;5036348;28;20476;-82
2024/01/03 04:23:08;;;;;;;10.17;9.77;;;9.00;78.10;;;;;;5038266;28;20992;-80
2024/01/03 04:25:37;;;;;;;9.70;9.50;;;9.00;1.00;;;;;;5037748;28;21057;-79
2024/01/03 04:28:06;;;;;;;9.30;9.20;;;9.10;1.00;;;;;;5039247;28;20456;-80
2024/01/03 04:30:35;;;;;;;9.83;9.47;;;9.10;1.00;;;;;;5038763;28;20554;-80
2024/01/03 04:33:03;;;;;;;9.60;9.30;;;9.10;1.00;;;;;;5041849;28;20456;-79
2024/01/03 04:35:31;;;;;;;9.17;9.07;;;9.10;1.00;;;;;;5041976;28;20528;-81
2024/01/03 04:38:02;;;;;;;9.53;9.33;;;9.10;1.00;;;;;;5041664;28;20453;-80
2024/01/03 04:40:34;;;;;;;9.27;8.97;;;9.10;1.00;;;;;;5046309;28;20467;-78
2024/01/03 04:43:02;;;;;;;9.00;8.70;;;9.10;1.00;;;;;;5044752;28;20464;-79
2024/01/03 04:45:30;;;;;;;9.00;8.70;;;9.10;99.90;;;;;;5043887;28;20552;-79
2024/01/03 04:47:58;;;;;;;8.50;8.20;;;9.10;1.00;;;;;;5044269;28;20519;-79
2024/01/03 04:50:27;;;;;;;8.83;8.40;;;9.10;1.00;;;;;;5042286;28;20475;-80
2024/01/03 04:52:55;;;;;;;8.63;8.40;;;9.10;99.90;;;;;;5042240;28;20457;-79
2024/01/03 04:55:24;;;;;;;8.90;8.60;;;9.00;99.90;;;;;;5042521;28;20503;-79
2024/01/03 04:57:53;;;;;;;8.80;8.43;;;9.10;1.00;;;;;;5039532;28;20452;-80
2024/01/03 05:00:22;;;;;;;8.30;8.00;;;9.10;99.90;;;;;;5040676;28;20509;-79
2024/01/03 05:02:53;;;;;;;8.43;8.10;;;9.00;99.90;;;;;;5026131;28;21030;-81
2024/01/03 05:05:21;;;;;;;8.20;8.00;;;9.00;99.90;;;;;;5041643;28;20711;-81
2024/01/03 05:07:50;;;;;;;8.50;8.10;;;9.00;99.90;;;;;;5040571;28;20463;-80
2024/01/03 05:10:18;;;;;;;8.30;8.00;;;9.10;99.90;;;;;;5040676;28;20510;-79
2024/01/03 05:12:46;;;;;;;8.63;8.20;;;9.10;15.90;;;;;;5039786;28;20456;-79
2024/01/03 05:15:16;;;;;;;8.20;8.00;;;9.00;11.10;;;;;;5044634;28;20456;-81
2024/01/03 05:17:46;;;;;;;7.90;7.60;;;9.10;99.90;;;;;;5045019;28;20479;-81
2024/01/03 05:20:15;;;;;;;7.70;7.30;;;9.10;1.00;;;;;;5040439;28;20535;-79
2024/01/03 05:22:44;;;;;;;7.50;7.20;;;9.10;1.00;;;;;;5042374;28;20449;-78
2024/01/03 05:25:12;;;;;;;7.57;7.33;;;9.10;1.00;;;;;;5039719;28;20563;-80
2024/01/03 05:27:40;;;;;;;8.03;7.60;;;9.10;1.00;;;;;;5041688;28;20456;-79
2024/01/03 05:30:10;;;;;;;7.50;7.20;;;9.10;1.00;;;;;;5039017;28;20563;-79
2024/01/03 05:32:40;;;;;;;7.97;7.20;;;9.10;99.90;;;;;;5038887;28;20456;-78
2024/01/03 05:35:09;;;;;;;7.27;6.97;;;9.10;20.70;;;;;;5035518;28;20486;-80
2024/01/03 05:37:37;;;;;;;7.70;7.30;;;9.10;1.00;;;;;;5040035;28;20467;-81
2024/01/03 05:40:07;;;;;;;7.50;7.20;;;9.10;1.00;;;;;;5038508;28;20499;-79
2024/01/03 05:42:35;;;;;;;7.27;7.07;;;9.10;1.00;;;;;;5037153;28;20461;-79
2024/01/03 05:45:03;;;;;;;7.30;7.03;;;9.10;1.00;;;;;;5041954;28;20483;-79
2024/01/03 05:47:32;;;;;;;7.20;6.90;;;9.10;1.00;;;;;;5041069;28;20958;-81
2024/01/03 05:50:01;;;;;;;6.60;6.50;;;9.20;1.00;;;;;;5039231;28;20893;-79
2024/01/03 05:52:30;;;;;;;7.00;6.70;;;9.10;1.00;;;;;;5042007;28;20495;-79
2024/01/03 05:55:00;;;;;;;7.07;6.80;;;9.10;1.00;;;;;;5040771;28;20528;-80
2024/01/03 05:57:29;;;;;;;7.30;7.10;;;9.20;1.00;;;;;;5036335;28;20928;-80
2024/01/03 05:59:58;;;;;;;7.93;7.63;;;9.20;1.00;;;;;;5036901;28;20465;-81
2024/01/03 06:02:26;;;;;;;7.17;6.87;;;9.20;10.50;;;;;;5038837;28;20512;-79
2024/01/03 06:04:55;;;;;;;7.00;6.80;;;9.20;99.90;;;;;;5037610;28;21021;-79
2024/01/03 06:07:27;;;;;;;7.10;6.80;;;9.20;1.00;;;;;;5042419;28;20546;-80
2024/01/03 06:09:56;;;;;;;8.10;7.70;;;9.20;99.90;;;;;;5039413;28;20501;-80
2024/01/03 06:12:25;;;;;;;7.60;7.40;;;9.20;1.00;;;;;;5037964;28;20448;-79
2024/01/03 06:14:53;;;;;;;9.13;7.70;;;9.20;99.90;;;;;;5053923;28;20456;-80
2024/01/03 06:17:21;;;;;;;7.77;7.47;;;9.20;99.90;;;;;;5036911;28;20494;-80
2024/01/03 06:19:50;;;;;;;7.80;7.60;;;9.20;99.90;;;;;;5042314;28;20559;-79
2024/01/03 06:22:18;;;;;;;7.60;7.30;;;9.20;99.90;;;;;;5035609;28;20456;-80
2024/01/03 06:24:48;;;;;;;8.13;7.93;;;9.20;99.90;;;;;;5039096;28;20459;-79
2024/01/03 06:27:16;;;;;;;7.70;7.50;;;9.20;1.00;;;;;;5039759;28;20507;-80
2024/01/03 06:29:44;;;;;;;7.73;7.53;;;9.10;99.90;;;;;;5038364;28;20508;-79
2024/01/03 06:32:14;;;;;;;7.80;7.47;;;9.10;99.90;;;;;;5039445;28;20456;-80
2024/01/03 06:34:43;;;;;;;7.60;7.20;;;9.10;99.90;;;;;;5038018;28;20467;-79
2024/01/03 06:37:11;;;;;;;7.30;7.10;;;9.20;1.00;;;;;;5034433;28;20460;-79
2024/01/03 06:39:39;;;;;;;7.40;7.20;;;9.10;1.00;;;;;;5040400;28;20484;-81
2024/01/03 06:42:09;;;;;;;7.40;7.10;;;9.10;1.00;;;;;;5038854;28;20452;-80
2024/01/03 06:44:37;;;;;;;7.70;7.50;;;9.10;1.00;;;;;;5038523;28;20988;-79
2024/01/03 06:47:06;;;;;;;7.30;7.10;;;9.10;1.00;;;;;;5053311;28;20480;-80
2024/01/03 06:49:34;;;;;;;7.20;6.90;;;9.10;1.00;;;;;;5035807;28;20483;-80
2024/01/03 06:52:02;;;;;;;7.30;7.10;;;9.10;1.00;;;;;;5035726;28;20532;-80
2024/01/03 06:54:31;;;;;;;6.90;6.80;;;9.10;1.00;;;;;;5037077;28;20974;-80
2024/01/03 06:56:59;;;;;;;7.40;7.20;;;9.10;99.90;;;;;;5038080;28;20470;-80
2024/01/03 06:59:29;;;;;;;7.40;7.20;;;9.10;99.90;;;;;;5039354;28;20468;-80
2024/01/03 07:01:57;;;;;;;7.90;7.50;;;9.10;99.90;;;;;;5038396;28;20449;-80
2024/01/03 07:04:25;;;;;;;7.40;7.10;;;9.10;99.90;;;;;;5035968;28;20543;-81
2024/01/03 07:06:54;;;;;;;7.77;7.47;;;9.20;77.80;;;;;;5035980;28;20464;-79
2024/01/03 07:09:22;;;;;;;7.30;7.10;;;9.20;20.20;;;;;;5035970;28;20496;-80
2024/01/03 07:11:50;;;;;;;7.07;6.87;;;9.20;68.70;;;;;;5038307;28;20471;-80
2024/01/03 07:14:19;;;;;;;7.33;7.10;;;9.20;99.90;;;;;;5038485;28;20468;-80
2024/01/03 07:16:48;;;;;;;7.30;7.00;;;9.20;99.90;;;;;;5037163;28;20975;-80
2024/01/03 07:19:19;;;;;;;7.37;7.07;;;9.20;99.90;;;;;;5037377;28;20460;-80
2024/01/03 07:21:48;;;;;;;7.20;6.90;;;9.20;57.60;;;;;;5033011;28;20456;-80
2024/01/03 07:24:16;;;;;;;7.07;6.70;;;9.20;97.50;;;;;;5038142;28;20444;-80
2024/01/03 07:26:45;;;;;;;7.33;7.10;;;9.20;99.90;;;;;;5037479;28;20480;-81
2024/01/03 07:29:13;;;;;;;7.50;7.30;;;9.20;99.90;;;;;;5038979;28;21025;-80
2024/01/03 07:31:41;;;;;;;7.27;7.00;;;9.20;48.30;;;;;;5034767;28;20531;-79
2024/01/03 07:34:11;;;;;;;7.40;7.20;;;9.20;1.00;;;;;;5041363;28;20455;-81
2024/01/03 07:36:39;;;;;;;7.93;7.63;;;9.20;99.90;;;;;;5045415;28;20562;-80
2024/01/03 07:39:09;;;;;;;7.60;7.30;;;9.20;1.00;;;;;;5046307;28;20512;-78
2024/01/03 07:41:38;;;;;;;8.00;7.80;;;9.20;1.00;;;;;;5042098;28;20473;-80
2024/01/03 07:44:07;;;;;;;7.80;7.53;;;9.20;99.90;;;;;;5042357;28;20973;-80
2024/01/03 07:46:35;;;;;;;7.73;7.20;;;9.30;1.00;;;;;;5043825;28;20478;-79
2024/01/03 07:49:03;;;;;;;7.80;7.40;;;9.20;99.90;;;;;;5045038;28;21066;-79
2024/01/03 07:51:38;;;;;;;7.70;7.50;;;9.20;1.00;;;;;;5028489;28;20461;-80
2024/01/03 07:54:07;;;;;;;7.70;7.40;;;9.20;41.60;;;;;;5045523;28;20796;-79
2024/01/03 07:56:36;;;;;;;7.20;7.10;;;9.20;99.90;;;;;;5043097;28;20455;-80
2024/01/03 07:59:04;;;;;;;7.30;7.10;;;9.20;99.90;;;;;;5041820;28;20463;-79
2024/01/03 08:01:33;;;;;;;7.60;7.20;;;9.20;1.00;;;;;;5043179;28;20543;-80
2024/01/03 08:04:01;;;;;;;7.43;6.90;;;9.30;99.90;;;;;;5046353;28;20459;-80
2024/01/03 08:06:29;;;;;;;7.17;6.97;;;9.30;40.00;;;;;;5041990;28;21210;-80
2024/01/03 08:08:59;;;;;;;7.63;7.13;;;9.30;99.90;;;;;;5040711;28;21188;-78
2024/01/03 08:11:28;;;;;;;7.00;6.83;;;9.30;50.70;;;;;;5044454;28;20480;-80
2024/01/03 08:13:56;;;;;;;7.50;7.20;;;9.40;99.90;;;;;;5045280;28;20465;-79
2024/01/03 08:16:24;;;;;;;8.00;7.70;;;9.40;1.00;;;;;;5042783;28;20851;-80
2024/01/03 08:18:53;;;;;;;7.30;7.10;;;9.40;1.00;;;;;;5042988;28;20465;-80
2024/01/03 08:21:21;;;;;;;7.80;7.40;;;9.40;1.00;;;;;;5045465;28;20448;-79
2024/01/03 08:23:50;;;;;;;7.83;7.53;;;9.50;1.00;;;;;;5041999;28;20451;-80
2024/01/03 08:26:22;;;;;;;7.93;7.63;;;9.50;99.90;;;;;;5045667;28;20527;-80
2024/01/03 08:28:50;;;;;;;7.67;7.23;;;9.50;1.00;;;;;;5045133;28;20526;-81
2024/01/03 08:31:19;;;;;;;7.20;7.00;;;9.50;81.80;;;;;;5040486;28;20456;-79
2024/01/03 08:33:47;;;;;;;7.90;7.70;;;9.60;99.90;;;;;;5043011;28;20509;-79
2024/01/03 08:36:16;;;;;;;7.60;7.30;;;9.60;99.90;;;;;;5045987;28;20448;-78
2024/01/03 08:38:44;;;;;;;8.40;7.70;;;9.60;1.00;;;;;;5044061;28;20486;-79
2024/01/03 08:41:14;;;;;;;7.80;7.50;;;9.60;99.90;;;;;;5045029;28;20456;-78
2024/01/03 08:43:44;;;;;;;8.37;7.77;;;9.50;1.00;;;;;;5044073;28;20459;-80
2024/01/03 08:46:13;;;;;;;7.83;7.63;;;9.50;1.00;;;;;;5042067;28;20453;-79
2024/01/03 08:48:42;;;;;;;7.90;7.70;;;9.40;1.00;;;;;;5040898;28;20472;-80
2024/01/03 08:51:13;;;;;;;8.17;7.87;;;9.40;1.00;;;;;;5042895;28;20464;-79
2024/01/03 08:53:42;;;;;;;8.00;7.70;;;9.40;99.90;;;;;;5040655;28;20598;-80
2024/01/03 08:56:14;;;;;;;7.90;7.70;;;9.40;36.00;;;;;;5041889;28;20446;-80
2024/01/03 08:58:45;;;;;;;7.40;7.30;;;9.40;1.00;;;;;;5041768;28;20452;-78
2024/01/03 09:01:17;;;;;;;8.63;8.43;;;9.40;99.90;;;;;;5038108;28;20456;-79
2024/01/03 09:03:46;;;;;;;8.20;7.83;;;9.40;1.00;;;;;;5040321;28;20456;-80
2024/01/03 09:06:17;;;;;;;8.33;8.13;;;9.40;1.00;;;;;;5038153;28;20449;-79
2024/01/03 09:08:46;;;;;;;8.40;8.00;;;9.50;80.90;;;;;;5039474;28;20468;-79
2024/01/03 09:11:14;;;;;;;7.80;7.70;;;9.60;99.90;;;;;;5039598;28;20940;-80
2024/01/03 09:13:48;;;;;;;8.30;8.20;;;9.60;99.90;;;;;;5040439;28;20459;-78
2024/01/03 09:16:19;;;;;;;8.53;8.10;;;9.70;99.40;;;;;;5037966;28;20483;-81
2024/01/03 09:18:48;;;;;;;8.40;8.10;;;9.70;1.00;;;;;;5040476;28;20457;-80
2024/01/03 09:21:16;;;;;;;7.97;7.83;;;9.70;1.00;;;;;;5043263;28;20451;-81
2024/01/03 09:23:45;;;;;;;8.00;7.80;;;9.70;99.90;;;;;;5038740;28;20486;-79
2024/01/03 09:26:15;;;;;;;11.13;10.20;;;9.80;99.90;;;;;;5040098;28;20536;-79
2024/01/03 09:28:47;;;;;;;8.33;8.13;;;9.80;1.00;;;;;;5039691;28;20496;-81
2024/01/03 09:31:16;;;;;;;7.90;7.80;;;10.00;99.90;;;;;;5038828;28;20544;-81
2024/01/03 09:33:44;;;;;;;8.10;7.90;;;10.00;99.90;;;;;;5037269;28;20445;-80
2024/01/03 09:36:18;;;;;;;7.80;7.60;;;9.80;99.90;;;;;;5037729;28;21049;-79
2024/01/03 09:38:52;;;;;;;8.17;7.97;;;9.70;99.90;;;;;;5028769;28;20984;-80
2024/01/03 09:41:20;;;;;;;8.10;7.80;;;9.80;1.00;;;;;;5036087;28;20473;-80
2024/01/03 09:43:52;;;;;;;8.30;8.00;;;9.70;99.90;;;;;;5037819;28;20542;-79
2024/01/03 09:46:21;;;;;;;8.00;7.90;;;9.80;1.00;;;;;;5039314;28;20489;-79
2024/01/03 09:48:49;;;;;;;8.40;8.20;;;9.70;99.90;;;;;;5037979;28;21013;-81
2024/01/03 09:51:19;;;;;;;8.50;8.10;;;9.70;1.00;;;;;;5038884;28;20453;-82
2024/01/03 09:53:51;;;;;;;8.50;8.07;;;9.60;99.90;;;;;;5037560;28;21026;-80
2024/01/03 09:56:19;;;;;;;8.23;7.93;;;9.60;99.90;;;;;;5036077;28;20456;-80
2024/01/03 09:58:47;;;;;;;8.70;8.50;;;9.60;99.90;;;;;;5035806;28;20459;-78
2024/01/03 10:01:17;;;;;;;8.93;8.63;;;9.70;1.00;;;;;;5036101;28;20450;-80
2024/01/03 10:03:45;;;;;;;9.20;9.00;;;9.80;99.90;;;;;;5039534;28;21153;-79
2024/01/03 10:06:14;;;;;;;9.60;9.20;;;9.80;1.00;;;;;;5037602;28;20448;-80
2024/01/03 10:08:58;;;;;;;9.10;8.87;;;9.80;1.00;;;;;;5036629;28;20989;-79
2024/01/03 10:11:28;;;;;;;9.33;9.03;;;9.70;99.90;;;;;;5040331;28;20969;-80
2024/01/03 10:14:13;;;;;;;9.10;8.80;;;9.80;99.90;;;;;;5037841;28;21028;-79
2024/01/03 10:16:44;;;;;;;8.47;8.27;;;9.70;99.10;;;;;;5037812;28;20472;-79
2024/01/03 10:19:14;;;;;;;9.53;9.20;;;9.60;29.70;;;;;;5039468;28;20540;-78
2024/01/03 10:21:50;;;;;;;8.27;8.17;;;9.50;29.80;;;;;;5034657;28;20479;-79
2024/01/03 10:24:20;;;;;;;8.43;8.10;;;9.50;1.00;;;;;;5035334;28;20992;-80
2024/01/03 10:26:48;;;;;;;9.03;8.73;;;9.60;1.00;;;;;;5038088;28;20456;-78
2024/01/03 10:29:18;;;;;;;9.00;8.70;;;9.60;99.90;;;;;;5038668;28;21003;-80
2024/01/03 10:31:49;;;;;;;8.93;8.73;;;9.60;99.90;;;;;;5036150;28;20448;-80
2024/01/03 10:34:22;;;;;;;10.00;9.60;;;9.70;1.00;;;;;;5034288;28;20485;-80
2024/01/03 10:36:55;;;;;;;8.70;8.60;;;9.60;1.00;;;;;;5037473;28;20437;-78
2024/01/03 10:39:25;;;;;;;8.40;8.20;;;9.50;30.10;;;;;;5038407;28;20468;-80
2024/01/03 10:41:54;;;;;;;8.90;8.60;;;9.60;99.90;;;;;;5037268;28;20531;-80
2024/01/03 10:44:23;;;;;;;8.90;8.70;;;10.00;1.00;;;;;;5037944;28;21227;-81
2024/01/03 10:46:54;;;;;;;9.53;9.23;;;10.50;99.90;;;;;;5035828;28;20437;-79
2024/01/03 10:49:23;;;;;;;9.33;9.07;;;10.70;99.90;;;;;;5036932;28;20476;-81
2024/01/03 10:51:58;;;;;;;9.67;9.27;;;10.50;1.00;;;;;;5036565;28;20443;-79
2024/01/03 10:54:28;;;;;;;9.70;9.50;;;10.50;1.00;;;;;;5035857;28;20579;-78
2024/01/03 10:56:57;;;;;;;9.27;9.10;;;10.80;99.90;;;;;;5036788;28;20467;-80
2024/01/03 10:59:36;;;;;;;8.90;8.70;;;11.00;99.90;;;;;;5037998;28;20459;-81
2024/01/03 11:02:15;;;;;;;8.80;8.50;;;10.90;1.00;;;;;;5036759;28;20459;-79
2024/01/03 11:04:54;;;;;;;8.53;8.23;;;10.70;27.80;;;;;;5037883;28;20464;-80
2024/01/03 11:07:29;;;;;;;8.70;8.43;;;10.50;1.00;;;;;;5038598;28;21228;-82
2024/01/03 11:09:58;;;;;;;8.30;8.10;;;10.50;99.90;;;;;;5036750;28;20490;-80
2024/01/03 11:12:29;;;;;;;8.40;8.00;;;10.50;99.90;;;;;;5040096;28;21309;-80
2024/01/03 11:15:23;;;;;;;8.30;8.10;;;10.60;94.60;;;;;;5038839;28;20453;-80
2024/01/03 11:18:10;;;;;;;8.60;8.40;;;10.50;99.90;;;;;;5037212;28;20456;-80
2024/01/03 11:20:39;;;;;;;8.57;8.27;;;10.40;99.90;;;;;;5038176;28;20471;-79
2024/01/03 11:23:07;;;;;;;9.13;8.80;;;10.60;99.90;;;;;;5032106;28;20461;-80
2024/01/03 11:25:48;;;;;;;9.87;9.57;;;11.20;99.90;;;;;;5045248;28;20460;-81
2024/01/03 11:28:32;;;;;;;9.10;8.90;;;12.00;99.90;;;;;;5038127;28;20480;-80
2024/01/03 11:31:01;;;;;;;8.23;8.13;;;12.00;3.30;;;;;;5037420;28;20496;-80
2024/01/03 11:33:31;;;;;;;8.33;8.23;;;12.00;94.80;;;;;;5033431;28;20495;-80
2024/01/03 11:36:01;;;;;;;8.27;8.10;;;12.00;31.80;;;;;;5037784;28;20464;-80
2024/01/03 11:38:39;;;;;;;8.57;8.30;;;12.00;7.20;;;;;;5035488;28;20452;-81
2024/01/03 11:41:08;;;;;;;8.43;8.23;;;11.80;1.00;;;;;;5034065;28;20477;-79
2024/01/03 11:43:36;;;;;;;7.90;7.80;;;11.60;65.70;;;;;;5034764;28;20457;-78
2024/01/03 11:46:10;;;;;;;8.60;8.40;;;11.50;65.20;;;;;;5038114;28;20444;-80
2024/01/03 11:48:42;;;;;;;8.53;8.30;;;11.70;99.90;;;;;;5034292;28;20487;-80
2024/01/03 11:51:28;;;;;;;7.73;7.63;;;11.70;54.20;;;;;;5031854;28;20571;-80
2024/01/03 11:54:02;;;;;;;8.23;7.77;;;11.50;1.00;;;;;;5034925;28;20958;-80
2024/01/03 11:56:32;;;;;;;8.30;8.00;;;11.50;1.00;;;;;;5034102;28;20468;-81
2024/01/03 11:59:02;;;;;;;7.83;7.60;;;11.40;1.00;;;;;;5037014;28;20511;-79
2024/01/03 12:01:32;;;;;;;7.40;7.20;;;11.40;1.00;;;;;;5036311;28;20455;-81
2024/01/03 12:04:12;;;;;;;8.40;7.93;;;11.10;1.50;;;;;;5037035;28;20460;-79
2024/01/03 12:06:41;;;;;;;7.50;7.30;;;11.20;99.90;;;;;;5032117;28;20535;-80
2024/01/03 12:09:10;;;;;;;7.77;7.53;;;11.30;99.90;;;;;;5036336;28;20512;-79
2024/01/03 12:11:38;;;;;;;7.63;7.33;;;11.20;99.90;;;;;;5036229;28;20476;-79
2024/01/03 12:14:07;;;;;;;7.80;7.23;;;11.10;99.90;;;;;;5034989;28;20856;-79
2024/01/03 12:16:46;;;;;;;8.10;7.90;;;11.00;99.90;;;;;;5035252;28;20449;-80
2024/01/03 12:19:24;;;;;;;8.17;7.80;;;10.90;1.00;;;;;;5030397;28;20475;-79
2024/01/03 12:21:56;;;;;;;7.57;7.47;;;10.80;1.00;;;;;;5037556;28;22081;-79
2024/01/03 12:24:38;;;;;;;8.00;7.80;;;10.80;1.00;;;;;;5038259;28;21260;-79
2024/01/03 12:27:07;;;;;;;7.70;7.50;;;10.60;1.00;;;;;;5039979;28;20479;-80
2024/01/03 12:29:36;;;;;;;7.33;7.23;;;10.70;1.00;;;;;;5036474;28;20495;-79
2024/01/03 12:32:11;;;;;;;7.80;7.60;;;10.60;1.00;;;;;;5039045;28;20460;-79
2024/01/03 12:34:41;;;;;;;7.50;7.20;;;10.50;1.00;;;;;;5039429;28;21029;-80
2024/01/03 12:37:09;;;;;;;7.27;7.10;;;10.50;1.00;;;;;;5038582;28;20990;-80
2024/01/03 12:39:41;;;;;;;7.50;7.30;;;10.50;6.80;;;;;;5038647;28;20457;-78
2024/01/03 12:42:10;;;;;;;8.67;8.50;;;10.60;1.00;;;;;;5040766;28;20466;-79
2024/01/03 12:44:39;;;;;;;8.27;7.90;;;10.80;1.00;;;;;;5039732;28;20989;-80
2024/01/03 12:47:10;;;;;;;8.30;8.10;;;10.90;1.00;;;;;;5038019;28;20453;-79
2024/01/03 12:49:40;;;;;;;8.40;8.00;;;11.00;1.00;;;;;;5041200;28;20467;-80
2024/01/03 12:52:10;;;;;;;8.30;8.10;;;11.10;1.00;;;;;;5039544;28;20455;-79
2024/01/03 12:54:38;;;;;;;8.27;8.07;;;11.00;99.90;;;;;;5039447;28;20451;-78
2024/01/03 12:57:07;;;;;;;8.40;8.30;;;11.10;99.90;;;;;;5038304;28;20583;-80
2024/01/03 12:59:35;;;;;;;9.03;8.77;;;11.20;99.90;;;;;;5040951;28;20465;-80
2024/01/03 13:02:06;;;;;;;8.33;8.00;;;11.30;99.90;;;;;;5039527;28;20452;-79
2024/01/03 13:04:37;;;;;;;7.67;7.47;;;11.40;96.60;;;;;;5040432;28;21134;-79
2024/01/03 13:07:06;;;;;;;7.83;7.53;;;11.30;1.00;;;;;;5036844;28;20457;-80
2024/01/03 13:09:35;;;;;;;7.60;7.50;;;11.30;1.00;;;;;;5038101;28;20486;-80
2024/01/03 13:12:03;;;;;;;7.57;7.37;;;11.40;1.00;;;;;;5040706;28;20547;-79